Terminal Aerodrome Forecast
Issued by NWS

Home | Current Version | Previous Version | Text Only | Print | Product List | Glossary On
Versions: 1 2 3 4 5 6 7 8 9 10 11 12 13 14 15 16 17 18 19 20 21 22 23 24 25 26
678
FTUS42 KGSP 282336
TAFHKY
TAF
KHKY 282336Z 2900/2924 06003KT P6SM BKN250
     FM290600 VRB03KT P6SM VCSH OVC045
     FM290900 VRB03KT P6SM OVC050 PROB30 2909/2913 4SM -SHRA OVC025
     FM291300 34005KT P6SM -SHRA OVC030
     FM291700 34007KT P6SM -RA OVC035
     FM292000 35007KT P6SM SCT040 OVC060 PROB30 2920/2924 4SM -RA
      OVC025=

USA.gov is the U.S. government's official web portal to all federal, state and local government web resources and services.